createdAt,value
2018-06-08T00:17:30.640Z,22.24
2018-06-08T00:42:47.171Z,21.78
2018-06-08T01:04:53.480Z,21.58
2018-06-08T01:07:24.220Z,21.38
2018-06-08T01:09:54.728Z,21.38
2018-06-08T01:12:25.162Z,21.36
2018-06-08T01:14:55.618Z,21.37
2018-06-08T01:17:26.069Z,21.43
2018-06-08T01:19:57.151Z,21.41
2018-06-08T01:22:27.531Z,21.38
2018-06-08T01:24:57.972Z,21.37
2018-06-08T01:27:28.598Z,21.33
2018-06-08T01:29:59.382Z,21.30
2018-06-08T01:32:29.797Z,21.27
2018-06-08T01:35:00.327Z,21.31
2018-06-08T01:37:32.836Z,21.27
2018-06-08T01:40:03.587Z,21.36
2018-06-08T01:42:34.020Z,21.37
2018-06-08T01:45:04.599Z,21.31
2018-06-08T01:47:35.088Z,21.35
2018-06-08T01:50:05.482Z,21.32
2018-06-08T01:52:35.891Z,21.25
2018-06-08T01:55:06.501Z,21.20
2018-06-08T01:57:37.017Z,21.20
2018-06-08T02:00:07.659Z,21.16
2018-06-08T02:02:38.174Z,21.14
2018-06-08T02:05:08.583Z,21.10
2018-06-08T02:07:38.997Z,21.02
2018-06-08T02:10:09.332Z,21.03
2018-06-08T02:12:40.175Z,21.04
2018-06-08T02:15:10.565Z,21.04
2018-06-08T02:17:42.059Z,20.92
2018-06-08T02:20:12.571Z,20.97
2018-06-08T02:22:43.020Z,20.85
2018-06-08T02:25:13.344Z,20.84
2018-06-08T02:27:43.754Z,20.72
2018-06-08T02:30:14.321Z,20.82
2018-06-08T02:32:44.794Z,20.74
2018-06-08T02:35:15.264Z,20.61
2018-06-08T02:37:45.785Z,20.61
2018-06-08T02:40:16.285Z,20.57
2018-06-08T02:42:46.797Z,20.58
2018-06-08T02:45:17.612Z,20.48
2018-06-08T02:47:48.094Z,20.46
2018-06-08T02:50:18.480Z,20.49
2018-06-08T02:52:48.808Z,20.57
2018-06-08T02:55:19.258Z,20.60
2018-06-08T02:57:49.653Z,20.61
2018-06-08T03:00:20.343Z,20.62
2018-06-08T03:02:50.916Z,20.66
2018-06-08T03:05:21.411Z,20.63
2018-06-08T03:07:51.773Z,20.61
2018-06-08T03:10:22.338Z,20.56
2018-06-08T03:12:52.720Z,20.58
2018-06-08T03:15:23.081Z,20.57
2018-06-08T03:17:53.518Z,20.67
2018-06-08T03:20:24.101Z,20.64
2018-06-08T03:22:54.536Z,20.68
2018-06-08T03:25:25.107Z,20.68
2018-06-08T03:27:55.648Z,20.69
2018-06-08T03:30:26.052Z,20.84
2018-06-08T03:32:56.704Z,20.99
2018-06-08T03:35:27.213Z,21.10
2018-06-08T03:37:57.742Z,21.20
2018-06-08T03:40:28.140Z,21.37
2018-06-08T03:42:58.548Z,21.62
2018-06-08T03:45:29.113Z,21.84
2018-06-08T03:47:59.620Z,22.07
2018-06-08T03:50:30.129Z,22.10
2018-06-08T03:53:00.704Z,22.26
2018-06-08T03:55:30.997Z,22.39
2018-06-08T03:58:01.448Z,22.75
2018-06-08T04:00:32.076Z,22.91
2018-06-08T04:03:02.497Z,23.01
2018-06-08T04:05:33.021Z,23.29
2018-06-08T04:08:03.540Z,23.39
2018-06-08T04:10:33.899Z,23.50
2018-06-08T04:13:04.491Z,23.80
2018-06-08T04:15:34.957Z,24.03
2018-06-08T04:18:05.454Z,24.22
2018-06-08T04:20:36.008Z,24.41
2018-06-08T04:23:06.340Z,24.75
2018-06-08T04:25:37.075Z,25.03
2018-06-08T04:28:07.399Z,25.20
2018-06-08T04:30:37.749Z,25.22
2018-06-08T04:33:08.357Z,25.77
2018-06-08T04:35:38.772Z,25.87
2018-06-08T04:38:09.398Z,26.52
2018-06-08T04:40:39.664Z,26.85
2018-06-08T04:43:10.149Z,26.79
2018-06-08T04:45:40.780Z,27.08
2018-06-08T04:48:11.208Z,27.26
2018-06-08T04:50:41.588Z,27.59
2018-06-08T04:53:12.359Z,27.98
2018-06-08T04:55:42.861Z,28.02
2018-06-08T04:58:13.207Z,28.28
2018-06-08T05:00:44.086Z,28.49
2018-06-08T05:03:14.533Z,28.23
2018-06-08T05:05:45.008Z,28.05
2018-06-08T05:08:15.217Z,28.28
2018-06-08T05:10:46.142Z,28.77
2018-06-08T05:13:16.719Z,28.71
2018-06-08T05:15:47.162Z,28.87
2018-06-08T05:18:17.542Z,28.99
2018-06-08T05:20:48.174Z,28.89
2018-06-08T05:23:18.514Z,28.92
2018-06-08T05:25:48.852Z,29.21
2018-06-08T05:28:19.324Z,29.86
2018-06-08T05:30:49.890Z,29.93
2018-06-08T05:33:20.366Z,30.21
2018-06-08T05:35:50.794Z,30.05
2018-06-08T05:38:21.230Z,30.58
2018-06-08T05:40:51.890Z,30.05
2018-06-08T05:43:22.332Z,31.36
2018-06-08T05:45:52.742Z,31.59
2018-06-08T05:48:23.325Z,31.56
2018-06-08T05:50:53.690Z,31.52
2018-06-08T05:53:23.977Z,32.05
2018-06-08T05:55:54.470Z,32.62
2018-06-08T05:58:25.269Z,33.00
2018-06-08T06:00:55.812Z,32.07
2018-06-08T06:03:26.190Z,32.37
2018-06-08T06:05:56.672Z,32.91
2018-06-08T06:08:27.271Z,33.07
2018-06-08T06:10:57.939Z,32.70
2018-06-08T06:13:29.150Z,31.33
2018-06-08T06:15:59.679Z,32.68
2018-06-08T06:18:30.210Z,32.77
2018-06-08T06:21:00.646Z,32.27
2018-06-08T06:23:30.937Z,32.26
2018-06-08T06:26:01.550Z,32.63
2018-06-08T06:28:32.016Z,32.48
2018-06-08T06:31:02.517Z,33.20
2018-06-08T06:33:33.280Z,32.15
2018-06-08T06:36:03.778Z,32.34
2018-06-08T06:38:34.384Z,33.93
2018-06-08T06:41:04.850Z,33.99
2018-06-08T06:43:35.254Z,33.25
2018-06-08T06:46:05.841Z,33.75
2018-06-08T06:48:36.448Z,33.06
2018-06-08T06:51:06.929Z,33.23
2018-06-08T06:53:37.403Z,34.09
2018-06-08T06:56:07.851Z,34.88
2018-06-08T06:58:38.336Z,34.14
2018-06-08T07:01:08.666Z,33.79
2018-06-08T07:03:39.203Z,34.32
2018-06-08T07:06:09.595Z,34.18
2018-06-08T07:08:39.986Z,33.44
2018-06-08T07:11:10.557Z,34.89
2018-06-08T07:13:41.037Z,36.00
2018-06-08T07:16:11.521Z,36.00
2018-06-08T07:18:42.068Z,35.70
2018-06-08T07:21:12.362Z,35.15
2018-06-08T07:23:43.029Z,33.71
2018-06-08T07:26:13.517Z,35.06
2018-06-08T07:28:44.292Z,34.35
2018-06-08T07:31:14.668Z,35.63
2018-06-08T07:33:45.159Z,35.87
2018-06-08T07:36:15.530Z,34.17
2018-06-08T07:38:45.940Z,35.85
2018-06-08T07:41:16.312Z,35.58
2018-06-08T07:43:46.699Z,34.97
2018-06-08T07:46:17.524Z,35.37
2018-06-08T07:48:47.990Z,35.62
2018-06-08T07:51:18.283Z,35.96
2018-06-08T07:53:49.000Z,35.80
2018-06-08T07:56:19.231Z,35.75
2018-06-08T07:58:49.918Z,37.39
2018-06-08T08:01:20.269Z,37.02
2018-06-08T08:03:50.932Z,36.66
2018-06-08T08:06:21.275Z,35.53
2018-06-08T08:08:51.702Z,35.09
2018-06-08T08:11:22.211Z,35.87
2018-06-08T08:13:52.940Z,36.33
2018-06-08T08:16:23.282Z,35.54
2018-06-08T08:18:53.859Z,36.14
2018-06-08T08:21:24.312Z,35.35
2018-06-08T08:23:54.649Z,35.35
2018-06-08T08:26:25.298Z,35.01
2018-06-08T08:28:55.654Z,34.59
2018-06-08T08:31:26.260Z,35.39
2018-06-08T08:33:56.896Z,36.34
2018-06-08T08:36:27.309Z,35.12
2018-06-08T08:38:57.695Z,35.80
2018-06-08T08:41:28.240Z,36.14
2018-06-08T08:43:58.645Z,35.80
2018-06-08T08:46:29.080Z,35.89
2018-06-08T08:48:59.638Z,35.51
2018-06-08T08:51:30.076Z,36.00
2018-06-08T08:54:00.715Z,36.58
2018-06-08T08:56:31.335Z,36.16
2018-06-08T08:59:01.718Z,35.33
2018-06-08T09:01:32.365Z,33.17
2018-06-08T09:04:02.763Z,33.81
2018-06-08T09:06:33.220Z,35.54
2018-06-08T09:09:05.017Z,35.85
2018-06-08T09:11:35.524Z,35.50
2018-06-08T09:14:05.957Z,35.06
2018-06-08T09:16:36.287Z,35.51
2018-06-08T09:19:06.809Z,36.29
2018-06-08T09:21:37.308Z,36.35
2018-06-08T09:24:07.656Z,35.65
2018-06-08T09:26:38.041Z,35.78
2018-06-08T09:29:08.620Z,34.40
2018-06-08T09:31:39.039Z,34.68
2018-06-08T09:34:09.663Z,34.99
2018-06-08T09:36:40.074Z,35.36
2018-06-08T09:39:10.474Z,33.77
2018-06-08T09:41:41.037Z,33.76
2018-06-08T09:44:11.594Z,35.05
2018-06-08T09:46:42.079Z,34.71
2018-06-08T09:49:12.509Z,35.77
2018-06-08T09:51:42.964Z,36.60
2018-06-08T09:54:13.595Z,35.21
2018-06-08T09:56:43.984Z,36.81
2018-06-08T09:59:14.457Z,35.68
2018-06-08T10:01:45.246Z,35.64
2018-06-08T10:04:15.674Z,36.33
2018-06-08T10:06:46.099Z,35.95
2018-06-08T10:09:16.641Z,36.64
2018-06-08T10:11:47.040Z,36.49
2018-06-08T10:14:17.603Z,37.68
2018-06-08T10:16:47.980Z,37.82
2018-06-08T10:19:18.572Z,35.90
2018-06-08T10:21:49.189Z,36.39
2018-06-08T10:24:19.549Z,35.23
2018-06-08T10:26:50.050Z,35.57
2018-06-08T10:29:21.392Z,35.83
2018-06-08T10:31:51.779Z,36.47
2018-06-08T10:34:22.440Z,36.69
2018-06-08T10:36:52.844Z,35.23
2018-06-08T10:39:23.378Z,36.32
2018-06-08T10:41:53.881Z,36.87
2018-06-08T10:44:24.214Z,36.70
2018-06-08T10:46:54.764Z,36.09
2018-06-08T10:49:25.283Z,35.94
2018-06-08T10:51:56.347Z,36.08
2018-06-08T10:54:26.904Z,36.72
2018-06-08T10:56:57.765Z,37.02
2018-06-08T10:59:28.395Z,37.65
2018-06-08T11:01:58.762Z,37.51
2018-06-08T11:04:29.222Z,36.78
2018-06-08T11:06:59.979Z,36.09
2018-06-08T11:09:30.366Z,35.81
2018-06-08T11:12:00.804Z,36.70
2018-06-08T11:14:31.441Z,36.86
2018-06-08T11:17:01.836Z,37.18
2018-06-08T11:19:33.347Z,35.97
2018-06-08T11:22:03.760Z,37.14
2018-06-08T11:24:34.225Z,36.99
2018-06-08T11:27:04.797Z,35.16
2018-06-08T11:29:35.319Z,34.75
2018-06-08T11:32:05.942Z,34.64
2018-06-08T11:34:36.452Z,33.63
2018-06-08T11:37:06.737Z,33.42
2018-06-08T11:39:37.319Z,32.98
2018-06-08T11:42:07.645Z,32.74
2018-06-08T11:44:38.337Z,33.06
2018-06-08T11:47:08.825Z,32.75
2018-06-08T11:49:40.255Z,32.80
2018-06-08T11:52:10.736Z,32.33
2018-06-08T11:54:41.198Z,32.17
2018-06-08T11:57:11.872Z,31.96
2018-06-08T11:59:42.390Z,32.11
2018-06-08T12:02:12.941Z,32.48
2018-06-08T12:04:43.309Z,32.80
2018-06-08T12:07:13.827Z,32.95
2018-06-08T12:09:44.350Z,32.68
2018-06-08T12:12:14.835Z,33.23
2018-06-08T12:14:45.413Z,33.34
2018-06-08T12:17:15.804Z,33.03
2018-06-08T12:19:46.170Z,32.85
2018-06-08T12:22:16.815Z,32.80
2018-06-08T12:24:47.322Z,33.05
2018-06-08T12:27:17.653Z,33.12
2018-06-08T12:29:50.154Z,33.26
2018-06-08T12:32:20.442Z,33.64
2018-06-08T12:34:51.162Z,33.58
2018-06-08T12:37:21.614Z,33.65
2018-06-08T12:39:52.145Z,33.45
2018-06-08T12:42:23.274Z,33.37
2018-06-08T12:44:54.108Z,33.08
2018-06-08T12:47:24.577Z,32.84
2018-06-08T12:49:55.198Z,33.17
2018-06-08T12:52:25.695Z,33.12
2018-06-08T12:54:56.258Z,33.15
2018-06-08T12:57:27.261Z,33.37
2018-06-08T12:59:57.954Z,32.99
2018-06-08T13:02:28.467Z,32.87
2018-06-08T13:04:59.082Z,33.00
2018-06-08T13:07:29.938Z,32.83
2018-06-08T13:10:00.297Z,32.69
2018-06-08T13:12:30.886Z,32.72
2018-06-08T13:15:01.497Z,33.01
2018-06-08T13:17:32.195Z,32.95
2018-06-08T13:20:02.661Z,32.62
2018-06-08T13:22:33.591Z,32.39
2018-06-08T13:25:04.178Z,32.57
2018-06-08T13:27:34.518Z,32.80
2018-06-08T13:30:04.888Z,32.61
2018-06-08T13:32:35.534Z,32.82
2018-06-08T13:35:06.159Z,32.99
2018-06-08T13:37:36.734Z,32.96
2018-06-08T13:40:07.279Z,32.98
2018-06-08T13:42:38.692Z,32.88
2018-06-08T13:45:09.074Z,32.45
2018-06-08T13:47:39.629Z,32.24
2018-06-08T13:50:10.221Z,32.17
2018-06-08T13:52:40.759Z,31.88
2018-06-08T13:55:11.120Z,31.89
2018-06-08T13:57:41.746Z,31.80
2018-06-08T14:00:12.404Z,31.75
2018-06-08T14:02:42.871Z,31.77
2018-06-08T14:05:13.165Z,31.65
2018-06-08T14:07:44.131Z,31.48
2018-06-08T14:10:14.825Z,31.33
2018-06-08T14:12:45.392Z,31.18
2018-06-08T14:15:16.032Z,31.11
2018-06-08T14:17:46.479Z,31.09
2018-06-08T14:20:16.842Z,30.90
2018-06-08T14:22:47.538Z,30.85
2018-06-08T14:25:17.946Z,30.87
2018-06-08T14:27:48.307Z,30.84
2018-06-08T14:30:18.826Z,30.95
2018-06-08T14:32:49.275Z,31.09
2018-06-08T14:35:19.652Z,31.11
2018-06-08T14:37:50.279Z,30.88
2018-06-08T14:40:20.824Z,30.74
2018-06-08T14:42:51.364Z,30.76
2018-06-08T14:45:21.867Z,30.85
2018-06-08T14:47:52.394Z,30.90
2018-06-08T14:50:22.882Z,31.00
2018-06-08T14:52:53.242Z,31.16
2018-06-08T14:55:23.760Z,30.91
2018-06-08T14:57:54.194Z,30.89
2018-06-08T15:00:24.792Z,30.92
2018-06-08T15:02:55.323Z,31.00
2018-06-08T15:05:25.645Z,31.09
2018-06-08T15:07:57.008Z,31.13
2018-06-08T15:10:27.500Z,31.22
2018-06-08T15:12:58.306Z,31.04
2018-06-08T15:15:28.679Z,31.00
2018-06-08T15:17:59.234Z,31.09
2018-06-08T15:20:29.738Z,31.02
2018-06-08T15:23:00.363Z,31.03
2018-06-08T15:25:30.790Z,31.13
2018-06-08T15:28:01.268Z,31.17
2018-06-08T15:30:31.748Z,31.16
2018-06-08T15:33:02.097Z,31.06
2018-06-08T15:35:32.690Z,30.94
2018-06-08T15:38:02.978Z,30.82
2018-06-08T15:40:33.471Z,30.68
2018-06-08T15:43:04.193Z,30.81
2018-06-08T15:45:34.533Z,30.64
2018-06-08T15:48:05.404Z,30.43
2018-06-08T15:50:36.204Z,30.35
2018-06-08T15:53:07.205Z,30.24
2018-06-08T15:55:37.628Z,30.21
2018-06-08T15:58:08.111Z,30.18
2018-06-08T16:00:38.590Z,30.14
2018-06-08T16:03:09.080Z,30.09
2018-06-08T16:05:39.433Z,30.12
2018-06-08T16:08:10.049Z,30.02
2018-06-08T16:10:40.617Z,30.10
2018-06-08T16:13:11.306Z,30.10
2018-06-08T16:15:41.868Z,30.12
2018-06-08T16:18:12.264Z,30.06
2018-06-08T16:20:42.910Z,29.89
2018-06-08T16:23:13.541Z,29.92
2018-06-08T16:25:44.451Z,29.74
2018-06-08T16:28:14.750Z,29.61
2018-06-08T16:30:45.225Z,29.56
2018-06-08T16:33:15.603Z,29.44
2018-06-08T16:35:46.203Z,29.34
2018-06-08T16:38:16.857Z,29.27
2018-06-08T16:40:47.436Z,29.18
2018-06-08T16:43:18.019Z,29.15
2018-06-08T16:45:48.773Z,29.13
2018-06-08T16:48:19.348Z,29.05
2018-06-08T16:50:50.098Z,29.02
2018-06-08T16:53:20.967Z,28.93
2018-06-08T16:55:51.585Z,28.88
2018-06-08T16:58:22.115Z,28.86
2018-06-08T17:00:52.727Z,28.85
2018-06-08T17:03:23.177Z,28.85
2018-06-08T17:05:53.648Z,28.89
2018-06-08T17:08:24.170Z,28.81
2018-06-08T17:10:54.627Z,28.73
2018-06-08T17:13:25.079Z,28.78
2018-06-08T17:15:55.495Z,28.73
2018-06-08T17:18:25.835Z,28.72
2018-06-08T17:20:56.327Z,28.70
2018-06-08T17:23:26.625Z,28.59
2018-06-08T17:25:57.007Z,28.55
2018-06-08T17:28:27.682Z,28.54
2018-06-08T17:30:58.260Z,28.51
2018-06-08T17:33:28.792Z,28.46
2018-06-08T17:35:59.319Z,28.42
2018-06-08T17:38:29.660Z,28.35
2018-06-08T17:41:00.345Z,28.22
2018-06-08T17:43:30.846Z,28.09
2018-06-08T17:46:01.331Z,28.01
2018-06-08T17:48:31.864Z,27.93
2018-06-08T17:51:02.246Z,27.79
2018-06-08T17:53:32.592Z,27.73
2018-06-08T17:56:03.424Z,27.65
2018-06-08T17:58:33.795Z,27.55
2018-06-08T18:01:04.321Z,27.46
2018-06-08T18:03:34.857Z,27.40
2018-06-08T18:06:05.356Z,27.34
2018-06-08T18:08:35.883Z,27.25
2018-06-08T18:11:06.222Z,27.20
2018-06-08T18:13:36.836Z,27.17
2018-06-08T18:16:07.431Z,27.02
2018-06-08T18:18:38.004Z,26.92
2018-06-08T18:21:08.406Z,26.89
2018-06-08T18:23:38.698Z,26.80
2018-06-08T18:26:09.279Z,26.71
2018-06-08T18:28:39.872Z,26.63
2018-06-08T18:31:10.428Z,26.59
2018-06-08T18:33:40.930Z,26.58
2018-06-08T18:36:11.296Z,26.58
2018-06-08T18:38:42.003Z,26.60
2018-06-08T18:41:12.693Z,26.74
2018-06-08T18:43:43.066Z,26.77
2018-06-08T18:46:13.406Z,26.83
2018-06-08T18:48:43.843Z,26.83
2018-06-08T18:51:14.190Z,26.82
2018-06-08T18:53:44.615Z,26.77
2018-06-08T18:56:14.960Z,26.68
2018-06-08T18:58:45.499Z,26.60
2018-06-08T19:01:16.277Z,26.54
2018-06-08T19:03:46.786Z,26.48
2018-06-08T19:06:17.057Z,26.48
2018-06-08T19:08:47.444Z,26.44
2018-06-08T19:11:17.868Z,26.46
2018-06-08T19:13:48.270Z,26.42
2018-06-08T19:16:19.010Z,26.43
2018-06-08T19:18:49.299Z,26.34
2018-06-08T19:21:20.076Z,26.36
2018-06-08T19:23:50.568Z,26.37
2018-06-08T19:26:21.137Z,26.40
2018-06-08T19:28:51.623Z,26.37
2018-06-08T19:31:22.027Z,26.26
2018-06-08T19:33:52.511Z,26.25
2018-06-08T19:36:23.289Z,26.29
2018-06-08T19:38:53.674Z,26.23
2018-06-08T19:41:24.046Z,26.20
2018-06-08T19:43:54.616Z,26.17
2018-06-08T19:46:25.050Z,26.07
2018-06-08T19:48:55.344Z,25.95
2018-06-08T19:51:26.859Z,25.91
2018-06-08T19:53:57.386Z,25.76
2018-06-08T19:56:27.939Z,25.70
2018-06-08T19:58:58.512Z,25.64
2018-06-08T20:01:28.996Z,25.55
2018-06-08T20:03:59.533Z,25.53
2018-06-08T20:06:29.972Z,25.44
2018-06-08T20:09:00.252Z,25.45
2018-06-08T20:11:30.833Z,25.44
2018-06-08T20:14:01.417Z,25.41
2018-06-08T20:16:31.849Z,25.34
2018-06-08T20:19:02.460Z,25.31
2018-06-08T20:21:32.838Z,25.32
2018-06-08T20:24:05.219Z,25.19
2018-06-08T20:26:35.696Z,25.17
2018-06-08T20:29:06.267Z,25.15
2018-06-08T20:31:37.021Z,25.15
2018-06-08T20:34:07.527Z,25.12
2018-06-08T20:36:37.984Z,25.11
2018-06-08T20:39:09.065Z,25.11
2018-06-08T20:41:39.844Z,25.07
2018-06-08T20:44:10.237Z,25.10
2018-06-08T20:46:40.763Z,25.01
2018-06-08T20:49:11.296Z,24.97
2018-06-08T20:51:41.905Z,24.94
2018-06-08T20:54:12.188Z,24.90
2018-06-08T20:56:42.596Z,24.84
2018-06-08T20:59:13.112Z,24.81
2018-06-08T21:01:43.737Z,24.83
2018-06-08T21:04:14.580Z,24.78
2018-06-08T21:06:45.128Z,24.74
2018-06-08T21:09:15.517Z,24.64
2018-06-08T21:11:45.796Z,24.72
2018-06-08T21:14:16.192Z,24.68
2018-06-08T21:16:46.600Z,24.68
2018-06-08T21:19:17.164Z,24.70
2018-06-08T21:21:47.728Z,24.70
2018-06-08T21:24:18.077Z,24.73
2018-06-08T21:26:48.741Z,24.73
2018-06-08T21:29:19.110Z,24.70
2018-06-08T21:31:49.709Z,24.70
2018-06-08T21:34:21.187Z,24.59
2018-06-08T21:36:51.659Z,24.52
2018-06-08T21:39:22.114Z,24.46
2018-06-08T21:41:52.672Z,24.52
2018-06-08T21:44:23.232Z,24.49
2018-06-08T21:46:53.602Z,24.51
2018-06-08T21:49:24.254Z,24.48
2018-06-08T21:51:54.654Z,24.50
2018-06-08T21:54:25.321Z,24.45
2018-06-08T21:56:55.686Z,24.43
2018-06-08T21:59:27.260Z,24.45
2018-06-08T22:01:57.853Z,24.45
2018-06-08T22:04:28.440Z,24.42
2018-06-08T22:06:58.948Z,24.39
2018-06-08T22:09:29.361Z,24.40
2018-06-08T22:11:59.769Z,24.40
2018-06-08T22:14:30.078Z,24.36
2018-06-08T22:17:00.433Z,24.33
2018-06-08T22:19:30.994Z,24.32
2018-06-08T22:22:01.552Z,24.28
2018-06-08T22:24:32.025Z,24.27
2018-06-08T22:27:02.642Z,24.30
2018-06-08T22:29:32.944Z,24.22
2018-06-08T22:32:03.653Z,24.16
2018-06-08T22:34:34.276Z,24.16
2018-06-08T22:37:05.356Z,24.07
2018-06-08T22:39:35.778Z,24.10
2018-06-08T22:42:06.323Z,24.05
2018-06-08T22:44:36.804Z,24.06
2018-06-08T22:47:07.483Z,23.96
2018-06-08T22:49:38.065Z,23.92
2018-06-08T22:52:08.516Z,23.92
2018-06-08T22:54:38.834Z,23.85
2018-06-08T22:57:09.403Z,23.84
2018-06-08T22:59:39.743Z,23.87
2018-06-08T23:02:10.336Z,23.82
2018-06-08T23:04:41.060Z,23.82
2018-06-08T23:07:11.550Z,23.84
2018-06-08T23:09:41.892Z,23.87
2018-06-08T23:12:12.610Z,23.81
2018-06-08T23:14:43.054Z,23.75
2018-06-08T23:17:13.440Z,23.76
2018-06-08T23:19:43.903Z,23.64
2018-06-08T23:22:14.246Z,23.66
2018-06-08T23:24:45.020Z,23.70
2018-06-08T23:27:15.362Z,23.67
2018-06-08T23:29:45.971Z,23.69
2018-06-08T23:32:16.363Z,23.60
2018-06-08T23:34:46.792Z,23.51
2018-06-08T23:37:17.378Z,23.47
2018-06-08T23:39:47.675Z,23.41
2018-06-08T23:42:18.192Z,23.45
2018-06-08T23:44:49.130Z,23.45
2018-06-08T23:47:19.443Z,23.43
2018-06-08T23:49:49.998Z,23.31
2018-06-08T23:52:20.587Z,23.31
2018-06-08T23:54:50.945Z,23.26
2018-06-08T23:57:21.368Z,23.27
2018-06-08T23:59:51.899Z,23.24
